Time;durP1;ratioP1;P1;durP2;ratioP2;P2;SDS_P1;SDS_P2;PMS_P1;PMS_P2;Temp;Humidity;BMP_temperature;BMP_pressure;BME280_temperature;BME280_humidity;BME280_pressure;Samples;Min_cycle;Max_cycle;Signal;HPM_P1;HPM_P2
2021/01/10 00:01:14;;;;;;;3.25;2.95;;;;;;;;;;5063785;28;20269;-48
2021/01/10 00:03:41;;;;;;;3.00;2.70;;;;;;;;;;5069877;28;20190;-48
2021/01/10 00:06:07;;;;;;;4.13;2.90;;;;;;;;;;5064721;28;20221;-49
2021/01/10 00:08:33;;;;;;;3.28;2.97;;;;;;;;;;5067121;28;20178;-48
2021/01/10 00:10:59;;;;;;;2.75;2.55;;;;;;;;;;5076767;28;20175;-48
2021/01/10 00:13:25;;;;;;;9.00;4.20;;;;;;;;;;5079458;28;20178;-48
2021/01/10 00:15:51;;;;;;;12.80;5.97;;;;;;;;;;5077528;28;20244;-48
2021/01/10 00:18:17;;;;;;;12.15;5.45;;;;;;;;;;5077753;28;20186;-49
2021/01/10 00:20:44;;;;;;;11.55;5.13;;;;;;;;;;5077984;28;20596;-48
2021/01/10 00:23:10;;;;;;;9.38;5.07;;;;;;;;;;5077780;28;20791;-49
2021/01/10 00:25:36;;;;;;;8.05;4.43;;;;;;;;;;5077501;28;20170;-49
2021/01/10 00:28:02;;;;;;;10.32;5.00;;;;;;;;;;5070306;28;20312;-48
2021/01/10 00:30:28;;;;;;;13.00;4.53;;;;;;;;;;5057853;28;20163;-48
2021/01/10 00:32:55;;;;;;;9.10;4.53;;;;;;;;;;5059370;28;20775;-48
2021/01/10 00:35:21;;;;;;;8.93;4.75;;;;;;;;;;5075125;28;20179;-48
2021/01/10 00:37:51;;;;;;;10.00;4.93;;;;;;;;;;5063697;28;20192;-48
2021/01/10 00:40:18;;;;;;;7.90;4.22;;;;;;;;;;5077780;28;20629;-48
2021/01/10 00:42:44;;;;;;;9.63;4.30;;;;;;;;;;5077151;28;20249;-49
2021/01/10 00:45:10;;;;;;;10.50;4.30;;;;;;;;;;5077162;28;20553;-49
2021/01/10 00:47:36;;;;;;;7.80;4.25;;;;;;;;;;5076989;28;20278;-48
2021/01/10 00:50:03;;;;;;;10.52;4.90;;;;;;;;;;5076313;28;20190;-48
2021/01/10 00:52:30;;;;;;;9.25;4.13;;;;;;;;;;5077146;28;20228;-49
2021/01/10 00:54:56;;;;;;;9.27;4.15;;;;;;;;;;5075400;28;20459;-48
2021/01/10 00:57:22;;;;;;;7.38;3.85;;;;;;;;;;5076690;28;20184;-48
2021/01/10 00:59:48;;;;;;;8.07;3.78;;;;;;;;;;5077302;28;20212;-48
2021/01/10 01:02:14;;;;;;;6.35;3.55;;;;;;;;;;5077074;28;20281;-48
2021/01/10 01:04:40;;;;;;;6.70;4.05;;;;;;;;;;5076088;28;20178;-48
2021/01/10 01:07:07;;;;;;;6.63;3.80;;;;;;;;;;5076638;28;20196;-48
2021/01/10 01:09:33;;;;;;;8.02;4.13;;;;;;;;;;5077479;28;20170;-48
2021/01/10 01:11:59;;;;;;;6.72;4.10;;;;;;;;;;5077047;28;20186;-48
2021/01/10 01:14:26;;;;;;;7.25;3.80;;;;;;;;;;5076194;28;20703;-48
2021/01/10 01:16:52;;;;;;;8.10;3.63;;;;;;;;;;5076303;28;20185;-49
2021/01/10 01:19:18;;;;;;;7.55;3.63;;;;;;;;;;5070425;28;20227;-48
2021/01/10 01:21:44;;;;;;;6.25;3.95;;;;;;;;;;5076859;28;20166;-48
2021/01/10 01:24:11;;;;;;;5.45;3.88;;;;;;;;;;5064262;28;20175;-48
2021/01/10 01:26:37;;;;;;;4.93;3.50;;;;;;;;;;5069480;28;20183;-48
2021/01/10 01:29:03;;;;;;;5.35;3.53;;;;;;;;;;5076665;28;20175;-48
2021/01/10 01:31:29;;;;;;;5.93;3.60;;;;;;;;;;5076642;28;20181;-49
2021/01/10 01:33:55;;;;;;;7.47;3.72;;;;;;;;;;5075931;28;20175;-50
2021/01/10 01:36:29;;;;;;;4.68;3.60;;;;;;;;;;5076706;28;20167;-48
2021/01/10 01:38:56;;;;;;;5.90;3.45;;;;;;;;;;5076625;28;20640;-49
2021/01/10 01:41:22;;;;;;;4.57;2.97;;;;;;;;;;5076302;28;20422;-49
2021/01/10 01:43:48;;;;;;;6.22;3.92;;;;;;;;;;5076159;28;20174;-48
2021/01/10 01:46:28;;;;;;;5.90;3.65;;;;;;;;;;5075138;28;20197;-48
2021/01/10 01:48:54;;;;;;;6.70;3.80;;;;;;;;;;5090374;28;20185;-49
2021/01/10 01:51:20;;;;;;;5.50;3.40;;;;;;;;;;5096780;28;20166;-48
2021/01/10 01:53:46;;;;;;;4.63;3.20;;;;;;;;;;5085706;28;20183;-49
2021/01/10 01:56:12;;;;;;;4.50;3.40;;;;;;;;;;5075774;28;20177;-49
2021/01/10 01:58:55;;;;;;;5.97;3.25;;;;;;;;;;5076079;28;20163;-49
2021/01/10 02:01:21;;;;;;;4.63;3.22;;;;;;;;;;5076165;28;20198;-49
2021/01/10 02:03:48;;;;;;;7.10;3.92;;;;;;;;;;5075870;28;20198;-49
2021/01/10 02:06:16;;;;;;;4.30;3.35;;;;;;;;;;5075017;28;20193;-48
2021/01/10 02:08:42;;;;;;;4.07;3.22;;;;;;;;;;5081147;28;20193;-48
2021/01/10 02:11:11;;;;;;;3.95;2.97;;;;;;;;;;5075305;28;20174;-48
2021/01/10 02:13:38;;;;;;;4.00;3.25;;;;;;;;;;5070542;28;20261;-48
2021/01/10 02:16:04;;;;;;;4.72;3.10;;;;;;;;;;5073588;28;20244;-50
2021/01/10 02:18:31;;;;;;;4.65;3.10;;;;;;;;;;5074535;28;20186;-48
2021/01/10 02:21:01;;;;;;;3.92;3.22;;;;;;;;;;5074749;28;20190;-48
2021/01/10 02:23:28;;;;;;;5.03;3.08;;;;;;;;;;5075405;28;20179;-48
2021/01/10 02:25:55;;;;;;;5.00;3.08;;;;;;;;;;5075440;28;20167;-48
2021/01/10 02:28:22;;;;;;;4.45;3.15;;;;;;;;;;5075537;28;20186;-49
2021/01/10 02:30:48;;;;;;;6.35;3.55;;;;;;;;;;5075557;28;20186;-48
2021/01/10 02:33:22;;;;;;;3.70;3.25;;;;;;;;;;5059903;28;20567;-48
2021/01/10 02:35:49;;;;;;;5.05;3.17;;;;;;;;;;5075344;28;20163;-48
2021/01/10 02:38:25;;;;;;;4.57;3.30;;;;;;;;;;5075426;28;20185;-49
2021/01/10 02:41:09;;;;;;;3.95;3.10;;;;;;;;;;5067033;28;20198;-49
2021/01/10 02:43:38;;;;;;;3.83;2.85;;;;;;;;;;5075151;28;20182;-48
2021/01/10 02:46:06;;;;;;;3.70;3.15;;;;;;;;;;5073139;28;20186;-49
2021/01/10 02:48:39;;;;;;;3.40;2.72;;;;;;;;;;5072146;28;20183;-48
2021/01/10 02:51:05;;;;;;;5.00;3.20;;;;;;;;;;5055212;28;20182;-48
2021/01/10 02:53:31;;;;;;;3.88;2.90;;;;;;;;;;5059160;28;20181;-48
2021/01/10 02:55:57;;;;;;;3.78;3.08;;;;;;;;;;5074627;28;20178;-48
2021/01/10 02:58:24;;;;;;;4.30;2.95;;;;;;;;;;5074229;28;20172;-49
2021/01/10 03:00:51;;;;;;;3.53;2.97;;;;;;;;;;5065634;28;20493;-48
2021/01/10 03:03:18;;;;;;;4.18;2.97;;;;;;;;;;5074896;28;20216;-49
2021/01/10 03:05:45;;;;;;;3.13;2.70;;;;;;;;;;5074707;28;20174;-49
2021/01/10 03:08:11;;;;;;;5.18;2.90;;;;;;;;;;5073769;28;20233;-48
2021/01/10 03:10:38;;;;;;;3.65;2.83;;;;;;;;;;5074319;28;20533;-48
2021/01/10 03:13:04;;;;;;;2.92;2.58;;;;;;;;;;5075071;28;20209;-48
2021/01/10 03:15:32;;;;;;;4.30;2.83;;;;;;;;;;5074435;28;20190;-48
2021/01/10 03:17:58;;;;;;;4.10;2.90;;;;;;;;;;5073758;28;20202;-48
2021/01/10 03:20:24;;;;;;;4.35;2.97;;;;;;;;;;5072785;28;20209;-48
2021/01/10 03:22:50;;;;;;;3.60;2.90;;;;;;;;;;5066617;28;20179;-50
2021/01/10 03:25:23;;;;;;;4.45;3.08;;;;;;;;;;5071970;28;20183;-48
2021/01/10 03:27:49;;;;;;;3.13;2.65;;;;;;;;;;5075296;28;20252;-48
2021/01/10 03:30:17;;;;;;;3.92;2.80;;;;;;;;;;5074687;28;20605;-48
2021/01/10 03:32:44;;;;;;;4.05;3.10;;;;;;;;;;5075131;28;20462;-49
2021/01/10 03:35:12;;;;;;;4.88;3.00;;;;;;;;;;5058869;28;20691;-48
2021/01/10 03:37:38;;;;;;;3.00;2.70;;;;;;;;;;5072462;28;20637;-48
2021/01/10 03:40:04;;;;;;;3.58;3.03;;;;;;;;;;5074471;28;20209;-48
2021/01/10 03:42:31;;;;;;;4.22;2.83;;;;;;;;;;5074970;28;20229;-49
2021/01/10 03:44:57;;;;;;;3.38;2.55;;;;;;;;;;5073989;28;20236;-48
2021/01/10 03:47:23;;;;;;;3.50;2.60;;;;;;;;;;5069457;28;20182;-48
2021/01/10 03:49:49;;;;;;;3.53;2.53;;;;;;;;;;5078808;28;20247;-48
2021/01/10 03:52:15;;;;;;;3.40;2.83;;;;;;;;;;5074605;28;20476;-48
2021/01/10 03:54:41;;;;;;;2.90;2.60;;;;;;;;;;5073187;28;20265;-49
2021/01/10 03:57:07;;;;;;;3.30;2.97;;;;;;;;;;5074625;28;20265;-48
2021/01/10 03:59:33;;;;;;;3.05;2.60;;;;;;;;;;5074362;28;20255;-48
2021/01/10 04:01:59;;;;;;;2.63;2.42;;;;;;;;;;5074431;28;20632;-50
2021/01/10 04:04:25;;;;;;;3.22;2.85;;;;;;;;;;5073740;28;20206;-49
2021/01/10 04:06:51;;;;;;;4.05;2.92;;;;;;;;;;5070683;28;20265;-48
2021/01/10 04:09:17;;;;;;;2.70;2.47;;;;;;;;;;5074154;28;20185;-48
2021/01/10 04:11:43;;;;;;;3.60;2.85;;;;;;;;;;5074497;28;20436;-49
2021/01/10 04:14:09;;;;;;;4.03;2.58;;;;;;;;;;5073731;28;20220;-49
2021/01/10 04:16:35;;;;;;;3.30;2.90;;;;;;;;;;5074450;28;20181;-49
2021/01/10 04:19:01;;;;;;;3.67;2.72;;;;;;;;;;5073928;28;20221;-48
2021/01/10 04:21:34;;;;;;;2.60;2.40;;;;;;;;;;5071684;28;20209;-48
2021/01/10 04:24:00;;;;;;;3.20;2.67;;;;;;;;;;5068969;28;20179;-50
2021/01/10 04:26:27;;;;;;;4.32;2.80;;;;;;;;;;5065158;28;20171;-48
2021/01/10 04:28:52;;;;;;;3.60;2.85;;;;;;;;;;5054229;28;20168;-48
2021/01/10 04:31:18;;;;;;;3.63;2.80;;;;;;;;;;5054772;28;20399;-49
2021/01/10 04:33:45;;;;;;;2.58;2.38;;;;;;;;;;5074062;28;20174;-48
2021/01/10 04:36:10;;;;;;;3.53;2.38;;;;;;;;;;5073366;28;20224;-48
2021/01/10 04:38:37;;;;;;;3.70;2.83;;;;;;;;;;5063920;28;20271;-50
2021/01/10 04:41:03;;;;;;;3.15;2.67;;;;;;;;;;5073976;28;20582;-48
2021/01/10 04:43:29;;;;;;;3.28;2.20;;;;;;;;;;5076626;28;20499;-48
2021/01/10 04:45:56;;;;;;;2.85;2.58;;;;;;;;;;5076832;28;20177;-48
2021/01/10 04:48:23;;;;;;;2.40;2.20;;;;;;;;;;5087998;28;20188;-48
2021/01/10 04:50:49;;;;;;;2.78;2.53;;;;;;;;;;5077804;28;20235;-48
2021/01/10 04:53:19;;;;;;;3.03;2.47;;;;;;;;;;5076195;28;20162;-48
2021/01/10 04:55:46;;;;;;;2.50;2.30;;;;;;;;;;5069948;28;20266;-48
2021/01/10 04:58:12;;;;;;;2.42;2.20;;;;;;;;;;5075197;28;20431;-48
2021/01/10 05:00:38;;;;;;;3.13;2.60;;;;;;;;;;5064411;28;20219;-49
2021/01/10 05:03:05;;;;;;;2.80;2.60;;;;;;;;;;5067742;28;20356;-48
2021/01/10 05:05:35;;;;;;;2.90;2.50;;;;;;;;;;5076752;28;20496;-50
2021/01/10 05:08:01;;;;;;;3.97;2.40;;;;;;;;;;5077523;28;20173;-48
2021/01/10 05:10:27;;;;;;;2.38;2.17;;;;;;;;;;5076924;28;20189;-49
2021/01/10 05:12:53;;;;;;;2.50;2.30;;;;;;;;;;5077206;28;20181;-49
2021/01/10 05:15:19;;;;;;;3.78;2.50;;;;;;;;;;5076678;28;20186;-49
2021/01/10 05:17:55;;;;;;;2.55;2.35;;;;;;;;;;5076864;28;20553;-48
2021/01/10 05:20:22;;;;;;;2.35;2.15;;;;;;;;;;5056503;28;20244;-49
2021/01/10 05:22:50;;;;;;;2.78;2.42;;;;;;;;;;5057247;28;20179;-50
2021/01/10 05:25:17;;;;;;;2.60;2.40;;;;;;;;;;5073733;28;20179;-48
2021/01/10 05:27:46;;;;;;;2.92;2.70;;;;;;;;;;5060461;28;20211;-49
2021/01/10 05:30:13;;;;;;;3.00;2.30;;;;;;;;;;5074657;28;20569;-49
2021/01/10 05:32:39;;;;;;;3.80;2.60;;;;;;;;;;5076693;28;20459;-49
2021/01/10 05:35:05;;;;;;;2.42;2.22;;;;;;;;;;5076109;28;20182;-48
2021/01/10 05:37:31;;;;;;;2.60;2.40;;;;;;;;;;5076561;28;20256;-49
2021/01/10 05:39:57;;;;;;;3.03;2.50;;;;;;;;;;5076560;28;20218;-48
2021/01/10 05:42:29;;;;;;;3.05;2.50;;;;;;;;;;5076192;28;20257;-49
2021/01/10 05:44:55;;;;;;;2.60;2.40;;;;;;;;;;5075590;28;20167;-49
2021/01/10 05:47:21;;;;;;;2.72;2.30;;;;;;;;;;5077586;28;20189;-48
2021/01/10 05:49:47;;;;;;;2.75;2.47;;;;;;;;;;5096989;28;20307;-48
2021/01/10 05:52:14;;;;;;;2.30;2.10;;;;;;;;;;5080322;28;20274;-48
2021/01/10 05:54:44;;;;;;;2.45;2.25;;;;;;;;;;5075527;28;20657;-48
2021/01/10 05:57:25;;;;;;;2.45;2.25;;;;;;;;;;5074578;28;20187;-50
2021/01/10 05:59:52;;;;;;;2.53;2.30;;;;;;;;;;5072077;28;20561;-48
2021/01/10 06:02:31;;;;;;;2.40;2.20;;;;;;;;;;5072343;28;20450;-49
2021/01/10 06:05:12;;;;;;;2.42;2.22;;;;;;;;;;5075514;28;20171;-48
2021/01/10 06:07:38;;;;;;;2.78;2.58;;;;;;;;;;5076233;28;20166;-49
2021/01/10 06:10:06;;;;;;;2.50;2.30;;;;;;;;;;5075746;28;20202;-49
2021/01/10 06:12:32;;;;;;;2.83;2.30;;;;;;;;;;5075103;28;20183;-48
2021/01/10 06:15:17;;;;;;;2.42;2.17;;;;;;;;;;5075282;28;20186;-48
2021/01/10 06:17:47;;;;;;;3.85;2.40;;;;;;;;;;5075764;28;20173;-49
2021/01/10 06:20:18;;;;;;;2.47;2.28;;;;;;;;;;5074403;28;20461;-48
2021/01/10 06:22:49;;;;;;;3.28;2.55;;;;;;;;;;5074611;28;20167;-48
2021/01/10 06:25:15;;;;;;;2.60;2.40;;;;;;;;;;5075472;28;20166;-48
2021/01/10 06:27:42;;;;;;;2.42;2.22;;;;;;;;;;5075748;28;20174;-48
2021/01/10 06:30:09;;;;;;;4.35;2.30;;;;;;;;;;5069293;28;20217;-48
2021/01/10 06:32:36;;;;;;;2.53;2.33;;;;;;;;;;5075702;28;20619;-48
2021/01/10 06:35:02;;;;;;;3.10;2.10;;;;;;;;;;5075104;28;20231;-48
2021/01/10 06:37:28;;;;;;;2.58;2.38;;;;;;;;;;5075764;28;20304;-48
2021/01/10 06:39:58;;;;;;;3.90;2.10;;;;;;;;;;5075684;28;20198;-48
2021/01/10 06:42:24;;;;;;;6.03;2.30;;;;;;;;;;5075183;28;20185;-49
2021/01/10 06:44:52;;;;;;;2.28;2.00;;;;;;;;;;5074823;28;20471;-48
2021/01/10 06:47:22;;;;;;;2.55;2.33;;;;;;;;;;5076312;28;20159;-49
2021/01/10 06:49:48;;;;;;;3.47;2.67;;;;;;;;;;5095465;28;20181;-49
2021/01/10 06:52:15;;;;;;;2.60;2.40;;;;;;;;;;5079160;28;20525;-49
2021/01/10 06:54:42;;;;;;;4.20;2.67;;;;;;;;;;5074272;28;20170;-48
2021/01/10 06:57:08;;;;;;;3.03;2.50;;;;;;;;;;5075488;28;20253;-49
2021/01/10 06:59:54;;;;;;;4.20;2.90;;;;;;;;;;5075310;28;20222;-49
2021/01/10 07:02:20;;;;;;;4.53;2.53;;;;;;;;;;5074765;28;20284;-49
2021/01/10 07:04:54;;;;;;;4.63;2.53;;;;;;;;;;5074266;28;20270;-49
2021/01/10 07:07:41;;;;;;;5.03;2.83;;;;;;;;;;5075200;28;20174;-49
2021/01/10 07:10:08;;;;;;;4.45;2.40;;;;;;;;;;5075393;28;20178;-49
2021/01/10 07:12:34;;;;;;;3.97;2.50;;;;;;;;;;5074968;28;20167;-47
2021/01/10 07:15:18;;;;;;;4.15;2.53;;;;;;;;;;5074286;28;20580;-48
2021/01/10 07:18:01;;;;;;;5.28;2.42;;;;;;;;;;5074704;28;20177;-47
2021/01/10 07:20:39;;;;;;;3.35;2.80;;;;;;;;;;5073838;28;20194;-49
2021/01/10 07:23:23;;;;;;;4.85;2.85;;;;;;;;;;5074950;28;20613;-49
2021/01/10 07:25:49;;;;;;;2.47;2.28;;;;;;;;;;5074357;28;20273;-49
2021/01/10 07:28:34;;;;;;;3.85;2.47;;;;;;;;;;5074560;28;20241;-49
2021/01/10 07:31:10;;;;;;;3.05;2.55;;;;;;;;;;5075066;28;20231;-48
2021/01/10 07:33:36;;;;;;;2.97;2.20;;;;;;;;;;5074872;28;20542;-49
2021/01/10 07:36:02;;;;;;;6.13;2.70;;;;;;;;;;5074349;28;20182;-49
2021/01/10 07:38:28;;;;;;;2.60;2.40;;;;;;;;;;5074563;28;20194;-49
2021/01/10 07:40:54;;;;;;;3.22;2.33;;;;;;;;;;5074705;28;20465;-49
2021/01/10 07:43:20;;;;;;;5.05;2.33;;;;;;;;;;5074549;28;20206;-49
2021/01/10 07:45:46;;;;;;;5.30;2.92;;;;;;;;;;5073953;28;20177;-49
2021/01/10 07:48:25;;;;;;;13.18;2.90;;;;;;;;;;5070421;28;20182;-49
2021/01/10 07:51:11;;;;;;;3.60;2.70;;;;;;;;;;5074160;28;20174;-49
2021/01/10 07:53:49;;;;;;;5.10;2.65;;;;;;;;;;5074774;28;20561;-49
2021/01/10 07:56:16;;;;;;;7.38;2.90;;;;;;;;;;5073692;28;20185;-49
2021/01/10 07:58:42;;;;;;;5.40;2.83;;;;;;;;;;5072778;28;20179;-47
2021/01/10 08:01:08;;;;;;;4.55;3.20;;;;;;;;;;5074395;28;20212;-48
2021/01/10 08:03:34;;;;;;;5.30;2.50;;;;;;;;;;5073945;28;20179;-49
2021/01/10 08:06:01;;;;;;;3.42;3.10;;;;;;;;;;5062107;28;20190;-49
2021/01/10 08:08:57;;;;;;;4.97;3.03;;;;;;;;;;5055505;28;20171;-49
2021/01/10 08:11:30;;;;;;;3.10;2.80;;;;;;;;;;5064850;28;20202;-49
2021/01/10 08:13:56;;;;;;;6.35;2.90;;;;;;;;;;5073227;28;20185;-48
2021/01/10 08:16:28;;;;;;;2.75;2.50;;;;;;;;;;5073256;28;20265;-48
2021/01/10 08:18:54;;;;;;;4.07;3.20;;;;;;;;;;5068045;28;20173;-48
2021/01/10 08:21:20;;;;;;;3.85;3.13;;;;;;;;;;5077566;28;20206;-48
2021/01/10 08:23:53;;;;;;;3.47;3.08;;;;;;;;;;5078460;28;20557;-48
2021/01/10 08:26:19;;;;;;;3.55;3.15;;;;;;;;;;5077924;28;20199;-49
2021/01/10 08:28:46;;;;;;;5.50;3.70;;;;;;;;;;5077523;28;20210;-48
2021/01/10 08:31:14;;;;;;;4.18;3.58;;;;;;;;;;5078088;28;20173;-48
2021/01/10 08:33:44;;;;;;;5.53;3.63;;;;;;;;;;5076620;28;20411;-48
2021/01/10 08:36:13;;;;;;;4.93;3.67;;;;;;;;;;5065652;28;20187;-49
2021/01/10 08:38:48;;;;;;;7.25;3.63;;;;;;;;;;5058214;28;20207;-48
2021/01/10 08:41:21;;;;;;;4.07;3.40;;;;;;;;;;5073906;28;20208;-49
2021/01/10 08:43:51;;;;;;;4.40;3.47;;;;;;;;;;5077000;28;20185;-48
2021/01/10 08:46:17;;;;;;;4.72;3.55;;;;;;;;;;5076392;28;20202;-48
2021/01/10 08:48:43;;;;;;;4.32;3.53;;;;;;;;;;5077936;28;20740;-48
2021/01/10 08:51:26;;;;;;;4.68;3.33;;;;;;;;;;5056830;28;20542;-49
2021/01/10 08:53:53;;;;;;;4.40;3.17;;;;;;;;;;5077830;28;20166;-49
2021/01/10 08:56:20;;;;;;;4.00;3.30;;;;;;;;;;5076690;28;20558;-49
2021/01/10 08:58:46;;;;;;;4.63;3.40;;;;;;;;;;5064344;28;20183;-48
2021/01/10 09:01:22;;;;;;;8.23;4.18;;;;;;;;;;5075634;28;20229;-49
2021/01/10 09:03:57;;;;;;;7.25;3.95;;;;;;;;;;5077293;28;20193;-48
2021/01/10 09:06:31;;;;;;;4.43;3.80;;;;;;;;;;5073716;28;20235;-48
2021/01/10 09:09:00;;;;;;;5.82;3.55;;;;;;;;;;5070869;28;20174;-49
2021/01/10 09:11:28;;;;;;;4.53;3.40;;;;;;;;;;5089911;28;20192;-49
2021/01/10 09:13:57;;;;;;;4.70;3.80;;;;;;;;;;5088819;28;20178;-49
2021/01/10 09:16:25;;;;;;;6.43;3.65;;;;;;;;;;5076246;28;20186;-48
2021/01/10 09:18:52;;;;;;;4.00;3.60;;;;;;;;;;5076942;28;20202;-47
2021/01/10 09:21:25;;;;;;;5.78;4.20;;;;;;;;;;5076261;28;20230;-48
2021/01/10 09:23:53;;;;;;;8.68;4.30;;;;;;;;;;5076773;28;20259;-48
2021/01/10 09:26:25;;;;;;;7.40;4.03;;;;;;;;;;5076773;28;20167;-47
2021/01/10 09:28:51;;;;;;;8.23;4.22;;;;;;;;;;5075529;28;20254;-49
2021/01/10 09:31:17;;;;;;;10.75;4.47;;;;;;;;;;5076770;28;20262;-47
2021/01/10 09:33:43;;;;;;;4.97;4.10;;;;;;;;;;5063653;28;20198;-48
2021/01/10 09:36:16;;;;;;;8.85;4.15;;;;;;;;;;5076007;28;20286;-48
2021/01/10 09:38:53;;;;;;;8.27;4.20;;;;;;;;;;5077031;28;20651;-48
2021/01/10 09:41:20;;;;;;;5.10;4.32;;;;;;;;;;5076829;28;20220;-48
2021/01/10 09:43:47;;;;;;;5.68;4.90;;;;;;;;;;5076184;28;20243;-48
2021/01/10 09:46:30;;;;;;;6.95;4.13;;;;;;;;;;5076166;28;20171;-49
2021/01/10 09:48:57;;;;;;;7.32;4.65;;;;;;;;;;5078126;28;20240;-49
2021/01/10 09:51:23;;;;;;;6.28;5.00;;;;;;;;;;5076860;28;20174;-48
2021/01/10 09:53:50;;;;;;;8.77;5.53;;;;;;;;;;5076675;28;20178;-49
2021/01/10 09:56:36;;;;;;;9.23;7.07;;;;;;;;;;5075806;28;20175;-48
2021/01/10 09:59:02;;;;;;;8.73;7.32;;;;;;;;;;5075387;28;20514;-49
2021/01/10 10:01:36;;;;;;;9.35;8.27;;;;;;;;;;5076492;28;20252;-49
2021/01/10 10:04:03;;;;;;;11.57;10.20;;;;;;;;;;5076238;28;20162;-48
2021/01/10 10:06:29;;;;;;;12.23;10.98;;;;;;;;;;5075604;28;20235;-48
2021/01/10 10:08:55;;;;;;;12.23;11.02;;;;;;;;;;5075879;28;20166;-49
2021/01/10 10:11:21;;;;;;;15.85;14.15;;;;;;;;;;5074550;28;20182;-49
2021/01/10 10:13:47;;;;;;;16.38;14.57;;;;;;;;;;5065193;28;20179;-49
2021/01/10 10:16:17;;;;;;;20.20;18.02;;;;;;;;;;5086215;28;20261;-48
2021/01/10 10:18:43;;;;;;;21.23;19.02;;;;;;;;;;5075296;28;20431;-48
2021/01/10 10:21:09;;;;;;;24.17;21.58;;;;;;;;;;5075414;28;20195;-49
2021/01/10 10:23:35;;;;;;;25.85;23.23;;;;;;;;;;5073137;28;20223;-48
2021/01/10 10:26:01;;;;;;;23.23;20.80;;;;;;;;;;5061151;28;20182;-49
2021/01/10 10:28:27;;;;;;;28.90;26.00;;;;;;;;;;5055433;28;20168;-48
2021/01/10 10:30:53;;;;;;;31.52;28.33;;;;;;;;;;5065695;28;20178;-49
2021/01/10 10:33:20;;;;;;;35.33;31.67;;;;;;;;;;5075038;28;20190;-50
2021/01/10 10:35:47;;;;;;;31.80;28.38;;;;;;;;;;5075151;28;20198;-48
2021/01/10 10:38:13;;;;;;;31.45;28.27;;;;;;;;;;5070425;28;20215;-48
2021/01/10 10:40:40;;;;;;;30.20;27.02;;;;;;;;;;5054661;28;20278;-48
2021/01/10 10:43:06;;;;;;;28.58;25.67;;;;;;;;;;5065979;28;20175;-48
2021/01/10 10:45:32;;;;;;;29.80;26.58;;;;;;;;;;5074784;28;20167;-48
2021/01/10 10:47:58;;;;;;;28.88;25.52;;;;;;;;;;5074968;28;20171;-48
2021/01/10 10:50:25;;;;;;;27.05;24.35;;;;;;;;;;5063251;28;20233;-49
2021/01/10 10:52:51;;;;;;;28.58;25.60;;;;;;;;;;5074899;28;20299;-49
2021/01/10 10:55:19;;;;;;;28.33;24.83;;;;;;;;;;5062833;28;20257;-49
2021/01/10 10:57:45;;;;;;;27.60;24.48;;;;;;;;;;5055034;28;20187;-48
2021/01/10 11:00:12;;;;;;;25.15;22.58;;;;;;;;;;5074628;28;20241;-49
2021/01/10 11:02:38;;;;;;;24.20;21.77;;;;;;;;;;5075152;28;20159;-48
2021/01/10 11:05:04;;;;;;;24.17;21.63;;;;;;;;;;5074704;28;20167;-49
2021/01/10 11:07:33;;;;;;;23.13;20.83;;;;;;;;;;5074271;28;20330;-47
2021/01/10 11:09:59;;;;;;;23.05;20.80;;;;;;;;;;5073976;28;20213;-48
2021/01/10 11:12:25;;;;;;;22.10;19.90;;;;;;;;;;5060791;28;20454;-48
2021/01/10 11:14:51;;;;;;;21.52;19.33;;;;;;;;;;5074178;28;20672;-49
2021/01/10 11:17:17;;;;;;;28.38;21.25;;;;;;;;;;5075156;28;20257;-49
2021/01/10 11:19:43;;;;;;;37.22;23.42;;;;;;;;;;5073702;28;20261;-48
2021/01/10 11:22:09;;;;;;;49.10;26.95;;;;;;;;;;5078810;28;20280;-48
2021/01/10 11:24:36;;;;;;;60.30;27.83;;;;;;;;;;5082196;28;20356;-49
2021/01/10 11:27:02;;;;;;;66.63;30.40;;;;;;;;;;5063744;28;20203;-47
2021/01/10 11:29:28;;;;;;;84.80;37.70;;;;;;;;;;5055063;28;20177;-48
2021/01/10 11:31:54;;;;;;;122.07;50.30;;;;;;;;;;5070463;28;20190;-47
2021/01/10 11:34:21;;;;;;;128.73;59.15;;;;;;;;;;5074280;28;20178;-48
2021/01/10 11:36:48;;;;;;;146.32;68.15;;;;;;;;;;5074815;28;20242;-49
2021/01/10 11:39:15;;;;;;;182.52;82.18;;;;;;;;;;5074199;28;20473;-49
2021/01/10 11:41:48;;;;;;;186.73;85.60;;;;;;;;;;5072298;28;20210;-48
2021/01/10 11:44:15;;;;;;;177.15;84.15;;;;;;;;;;5072344;28;20185;-50
2021/01/10 11:46:42;;;;;;;164.90;80.60;;;;;;;;;;5074082;28;20174;-49
2021/01/10 11:49:09;;;;;;;184.45;85.97;;;;;;;;;;5077428;28;20186;-48
2021/01/10 11:51:35;;;;;;;174.95;82.57;;;;;;;;;;5071924;28;20324;-48
2021/01/10 11:54:01;;;;;;;155.32;77.93;;;;;;;;;;5073039;28;20197;-48
2021/01/10 11:56:27;;;;;;;153.88;75.93;;;;;;;;;;5058404;28;20179;-48
2021/01/10 11:58:53;;;;;;;159.13;76.18;;;;;;;;;;5069143;28;20457;-48
2021/01/10 12:01:19;;;;;;;155.30;74.15;;;;;;;;;;5072252;28;20206;-47
2021/01/10 12:03:48;;;;;;;152.93;70.90;;;;;;;;;;5073808;28;20182;-49
2021/01/10 12:06:18;;;;;;;138.38;65.68;;;;;;;;;;5068624;28;20271;-48
2021/01/10 12:08:44;;;;;;;141.00;66.18;;;;;;;;;;5072591;28;20178;-48
2021/01/10 12:11:17;;;;;;;129.10;64.00;;;;;;;;;;5058229;28;20220;-48
2021/01/10 12:13:44;;;;;;;131.02;61.10;;;;;;;;;;5054318;28;20175;-48
2021/01/10 12:16:17;;;;;;;124.38;58.33;;;;;;;;;;5055479;28;20197;-48
2021/01/10 12:18:43;;;;;;;124.25;58.08;;;;;;;;;;5071107;28;20198;-48
2021/01/10 12:21:09;;;;;;;117.10;56.00;;;;;;;;;;5073360;28;20206;-48
2021/01/10 12:23:36;;;;;;;118.68;54.90;;;;;;;;;;5073541;28;20186;-49
2021/01/10 12:26:07;;;;;;;119.25;55.25;;;;;;;;;;5073372;28;20232;-49
2021/01/10 12:28:33;;;;;;;119.15;54.78;;;;;;;;;;5072355;28;20273;-48
2021/01/10 12:30:58;;;;;;;102.63;52.20;;;;;;;;;;5066092;28;20829;-48
2021/01/10 12:33:24;;;;;;;102.25;49.80;;;;;;;;;;5073598;28;20481;-49
2021/01/10 12:35:50;;;;;;;98.20;48.30;;;;;;;;;;5073685;28;20181;-49
2021/01/10 12:38:16;;;;;;;93.05;47.67;;;;;;;;;;5063002;28;20565;-49
2021/01/10 12:40:42;;;;;;;96.88;47.88;;;;;;;;;;5073643;28;20229;-49
2021/01/10 12:43:08;;;;;;;95.60;46.47;;;;;;;;;;5074322;28;20212;-48
2021/01/10 12:45:35;;;;;;;90.10;45.50;;;;;;;;;;5073853;28;20249;-48
2021/01/10 12:48:01;;;;;;;86.82;43.00;;;;;;;;;;5066170;28;20499;-48
2021/01/10 12:50:27;;;;;;;89.57;41.88;;;;;;;;;;5073764;28;20285;-49
2021/01/10 12:52:52;;;;;;;91.53;43.33;;;;;;;;;;5073805;28;20303;-49
2021/01/10 12:55:18;;;;;;;84.22;43.03;;;;;;;;;;5073791;28;20166;-49
2021/01/10 12:57:44;;;;;;;81.60;40.47;;;;;;;;;;5072440;28;20182;-49
2021/01/10 13:00:13;;;;;;;79.80;40.42;;;;;;;;;;5073196;28;20217;-49
2021/01/10 13:02:39;;;;;;;72.70;38.85;;;;;;;;;;5063946;28;20228;-47
2021/01/10 13:05:06;;;;;;;76.72;39.03;;;;;;;;;;5058370;28;20300;-48
2021/01/10 13:07:33;;;;;;;79.30;38.83;;;;;;;;;;5076599;28;20224;-49
2021/01/10 13:09:59;;;;;;;76.65;37.50;;;;;;;;;;5076721;28;20604;-48
2021/01/10 13:12:25;;;;;;;71.28;37.15;;;;;;;;;;5076664;28;20202;-49
2021/01/10 13:14:51;;;;;;;76.25;35.95;;;;;;;;;;5076993;28;20259;-49
2021/01/10 13:17:17;;;;;;;68.32;35.53;;;;;;;;;;5077040;28;20185;-48
2021/01/10 13:19:44;;;;;;;62.70;35.05;;;;;;;;;;5059805;28;20199;-48
2021/01/10 13:22:10;;;;;;;67.22;34.60;;;;;;;;;;5056520;28;20167;-49
2021/01/10 13:24:36;;;;;;;64.90;34.05;;;;;;;;;;5074965;28;20282;-48
2021/01/10 13:27:03;;;;;;;68.53;34.70;;;;;;;;;;5077332;28;20224;-48
2021/01/10 13:29:30;;;;;;;60.35;31.75;;;;;;;;;;5076589;28;20440;-49
2021/01/10 13:31:56;;;;;;;61.85;32.47;;;;;;;;;;5077053;28;20170;-49
2021/01/10 13:34:22;;;;;;;59.38;32.17;;;;;;;;;;5066593;28;20179;-48
2021/01/10 13:36:48;;;;;;;58.67;31.40;;;;;;;;;;5057048;28;20171;-48
2021/01/10 13:39:14;;;;;;;54.20;29.40;;;;;;;;;;5056953;28;20603;-48
2021/01/10 13:41:40;;;;;;;56.63;30.50;;;;;;;;;;5063842;28;20186;-48
2021/01/10 13:44:06;;;;;;;52.20;29.27;;;;;;;;;;5076058;28;20177;-48
2021/01/10 13:46:32;;;;;;;53.83;27.77;;;;;;;;;;5076582;28;20171;-49
2021/01/10 13:48:58;;;;;;;49.05;27.58;;;;;;;;;;5078099;28;20262;-48
2021/01/10 13:51:25;;;;;;;47.13;26.73;;;;;;;;;;5061118;28;20725;-47
2021/01/10 13:53:52;;;;;;;47.55;26.13;;;;;;;;;;5075616;28;20492;-48
2021/01/10 13:56:22;;;;;;;45.58;26.02;;;;;;;;;;5075673;28;20159;-48
2021/01/10 13:58:48;;;;;;;51.58;26.60;;;;;;;;;;5076261;28;20178;-49
2021/01/10 14:01:14;;;;;;;44.80;26.02;;;;;;;;;;5076214;28;20206;-49
2021/01/10 14:03:40;;;;;;;39.72;23.15;;;;;;;;;;5076045;28;20253;-48
2021/01/10 14:06:07;;;;;;;44.05;25.35;;;;;;;;;;5063314;28;20178;-48
2021/01/10 14:08:33;;;;;;;39.67;23.88;;;;;;;;;;5056182;28;20254;-49
2021/01/10 14:10:59;;;;;;;42.85;23.65;;;;;;;;;;5056687;28;20329;-48
2021/01/10 14:13:26;;;;;;;36.58;22.52;;;;;;;;;;5073608;28;20269;-49
2021/01/10 14:15:52;;;;;;;36.75;21.85;;;;;;;;;;5062254;28;20183;-48
2021/01/10 14:18:18;;;;;;;39.17;23.00;;;;;;;;;;5075888;28;20201;-49
2021/01/10 14:20:44;;;;;;;38.75;21.90;;;;;;;;;;5075071;28;20240;-49
2021/01/10 14:23:10;;;;;;;32.47;21.20;;;;;;;;;;5075945;28;20166;-49
2021/01/10 14:25:36;;;;;;;35.53;22.25;;;;;;;;;;5075590;28;20174;-48
2021/01/10 14:28:04;;;;;;;36.20;21.63;;;;;;;;;;5075619;28;20162;-49
2021/01/10 14:30:32;;;;;;;34.08;20.27;;;;;;;;;;5075053;28;20193;-49
2021/01/10 14:32:59;;;;;;;33.53;21.75;;;;;;;;;;5075888;28;20178;-49
2021/01/10 14:35:25;;;;;;;30.70;19.23;;;;;;;;;;5075045;28;20178;-48
2021/01/10 14:37:51;;;;;;;30.25;19.67;;;;;;;;;;5075795;28;20258;-48